NCAR-RAP Real-Time Weather Data

Output produced by METARs form (23 April 2019  08:45 UTC)
found at http://weather.rap.ucar.edu/surface/
 
KDTW 230753Z 19004KT 9SM -RA SCT060 BKN075 OVC120 14/08 A2991 RMK AO2 RAE03B35 SLP127 P0000 T01440078